Time;durP1;ratioP1;P1;durP2;ratioP2;P2;SDS_P1;SDS_P2;PMS_P1;PMS_P2;Temp;Humidity;BMP_temperature;BMP_pressure;BME280_temperature;BME280_humidity;BME280_pressure;Samples;Min_cycle;Max_cycle;Signal;HPM_P1;HPM_P2
2022/12/20 00:01:33;;;;;;;29.38;21.60;;;9.70;89.70;;;;;;5072778;28;20059;-71
2022/12/20 00:04:02;;;;;;;27.80;21.63;;;9.80;89.80;;;;;;5054653;28;20515;-70
2022/12/20 00:06:28;;;;;;;28.48;20.63;;;9.80;89.90;;;;;;5072651;28;20028;-70
2022/12/20 00:08:56;;;;;;;25.67;20.50;;;9.80;89.80;;;;;;5054730;28;20033;-70
2022/12/20 00:11:23;;;;;;;29.90;19.95;;;9.80;89.90;;;;;;5054302;28;20031;-70
2022/12/20 00:13:49;;;;;;;25.50;18.80;;;9.90;89.70;;;;;;5072672;28;20124;-70
2022/12/20 00:16:19;;;;;;;31.42;20.25;;;9.80;89.40;;;;;;5072522;28;20380;-72
2022/12/20 00:18:45;;;;;;;24.85;19.55;;;9.80;89.40;;;;;;5072569;28;20484;-71
2022/12/20 00:21:13;;;;;;;27.00;19.85;;;9.80;89.50;;;;;;5072565;28;20384;-70
2022/12/20 00:23:39;;;;;;;26.75;20.55;;;9.70;89.50;;;;;;5072351;28;20040;-71
2022/12/20 00:26:14;;;;;;;25.63;19.63;;;9.70;89.50;;;;;;5054352;28;20539;-70
2022/12/20 00:28:40;;;;;;;24.77;20.55;;;9.60;89.00;;;;;;5071245;28;20036;-72
2022/12/20 00:31:08;;;;;;;26.50;20.38;;;9.60;89.90;;;;;;5072214;28;20496;-71
2022/12/20 00:33:36;;;;;;;26.20;19.80;;;9.60;89.90;;;;;;5072472;28;20073;-71
2022/12/20 00:36:02;;;;;;;28.67;21.38;;;9.60;89.70;;;;;;5071863;28;20184;-71
2022/12/20 00:38:28;;;;;;;29.42;21.48;;;9.50;89.80;;;;;;5072284;28;20029;-70
2022/12/20 00:41:09;;;;;;;27.00;19.73;;;9.40;89.70;;;;;;5054113;28;20473;-69
2022/12/20 00:43:35;;;;;;;26.05;19.77;;;9.40;89.30;;;;;;5072335;28;20043;-71
2022/12/20 00:46:01;;;;;;;26.08;20.33;;;9.40;90.30;;;;;;5054188;28;20040;-70
2022/12/20 00:48:28;;;;;;;29.42;19.05;;;9.40;90.00;;;;;;5054191;28;20036;-71
2022/12/20 00:50:58;;;;;;;24.30;18.83;;;9.40;89.80;;;;;;5072162;28;20624;-71
2022/12/20 00:53:24;;;;;;;26.10;18.67;;;9.40;90.00;;;;;;5071197;28;20121;-71
2022/12/20 00:55:49;;;;;;;22.42;17.55;;;9.30;89.90;;;;;;5072343;28;20605;-71
2022/12/20 00:58:15;;;;;;;24.05;16.80;;;9.30;89.40;;;;;;5072304;28;20036;-70
2022/12/20 01:00:41;;;;;;;21.30;16.85;;;9.30;90.00;;;;;;5070753;28;20067;-70
2022/12/20 01:03:07;;;;;;;25.33;17.20;;;9.30;89.70;;;;;;5054033;28;20070;-70
2022/12/20 01:05:33;;;;;;;23.67;16.65;;;9.30;89.90;;;;;;5057085;28;20032;-71
2022/12/20 01:07:59;;;;;;;21.52;15.73;;;9.30;89.60;;;;;;5075994;28;20098;-71
2022/12/20 01:10:26;;;;;;;23.55;17.70;;;9.30;89.80;;;;;;5076086;28;20038;-71
2022/12/20 01:12:52;;;;;;;24.35;17.13;;;9.40;89.70;;;;;;5076300;28;20465;-71
2022/12/20 01:15:19;;;;;;;20.90;16.13;;;9.30;89.40;;;;;;5076196;28;20113;-70
2022/12/20 01:17:45;;;;;;;24.83;17.58;;;9.30;89.70;;;;;;5075671;28;20025;-71
2022/12/20 01:20:11;;;;;;;22.77;16.30;;;9.30;89.50;;;;;;5058029;28;20103;-70
2022/12/20 01:22:38;;;;;;;22.30;16.25;;;9.20;89.50;;;;;;5075855;28;20051;-71
2022/12/20 01:25:05;;;;;;;22.27;16.52;;;9.20;89.50;;;;;;5075769;28;20359;-70
2022/12/20 01:27:30;;;;;;;22.50;16.92;;;9.30;89.80;;;;;;5057670;28;20094;-70
2022/12/20 01:29:56;;;;;;;33.80;17.40;;;9.20;89.70;;;;;;5075597;28;20036;-71
2022/12/20 01:32:22;;;;;;;21.75;15.80;;;9.20;89.60;;;;;;5075581;28;20060;-72
2022/12/20 01:34:47;;;;;;;20.30;14.38;;;9.20;89.70;;;;;;5075512;28;20028;-70
2022/12/20 01:37:13;;;;;;;20.25;14.95;;;9.10;89.30;;;;;;5075562;28;20037;-71
2022/12/20 01:39:39;;;;;;;20.95;15.45;;;9.10;89.60;;;;;;5075493;28;20029;-71
2022/12/20 01:42:05;;;;;;;21.55;14.88;;;9.10;89.60;;;;;;5057631;28;20052;-70
2022/12/20 01:44:30;;;;;;;21.13;14.63;;;9.10;89.50;;;;;;5057484;28;20039;-72
2022/12/20 01:46:57;;;;;;;18.88;14.95;;;9.10;89.60;;;;;;5075336;28;20036;-70
2022/12/20 01:49:38;;;;;;;25.77;15.95;;;9.10;89.70;;;;;;5057337;28;20028;-70
2022/12/20 01:52:07;;;;;;;20.83;15.45;;;9.10;88.90;;;;;;5057006;28;20393;-71
2022/12/20 01:54:40;;;;;;;22.98;15.80;;;9.10;89.50;;;;;;5057295;28;20377;-71
2022/12/20 01:57:18;;;;;;;19.30;14.30;;;9.10;89.70;;;;;;5056980;28;20048;-69
2022/12/20 01:59:47;;;;;;;20.60;14.52;;;9.10;89.60;;;;;;5057076;28;20500;-70
2022/12/20 02:02:13;;;;;;;21.63;15.15;;;9.10;89.60;;;;;;5074792;28;20037;-69
2022/12/20 02:04:39;;;;;;;18.27;13.45;;;9.10;89.70;;;;;;5074863;28;20412;-70
2022/12/20 02:07:06;;;;;;;19.05;13.98;;;9.00;89.20;;;;;;5073423;28;20075;-70
2022/12/20 02:09:34;;;;;;;19.38;14.32;;;9.00;89.50;;;;;;5074891;28;20037;-71
2022/12/20 02:12:22;;;;;;;20.35;14.23;;;9.00;89.30;;;;;;5074776;28;20078;-71
2022/12/20 02:15:12;;;;;;;20.42;15.15;;;9.10;88.90;;;;;;5056604;28;20039;-70
2022/12/20 02:17:44;;;;;;;27.75;14.88;;;9.00;88.90;;;;;;5056846;28;20036;-70
2022/12/20 02:20:10;;;;;;;18.20;13.40;;;9.00;88.80;;;;;;5074605;28;20432;-70
2022/12/20 02:23:11;;;;;;;19.70;14.80;;;9.00;89.00;;;;;;5074670;28;20047;-71
2022/12/20 02:25:46;;;;;;;18.15;13.05;;;9.00;88.70;;;;;;5074808;28;20143;-71
2022/12/20 02:28:25;;;;;;;21.52;13.63;;;9.00;88.90;;;;;;5087624;28;20107;-70
2022/12/20 02:30:55;;;;;;;20.75;13.93;;;9.00;89.30;;;;;;5094728;28;20036;-69
2022/12/20 02:33:23;;;;;;;21.45;13.85;;;9.00;89.50;;;;;;5094840;28;20040;-70
2022/12/20 02:35:49;;;;;;;20.67;14.02;;;9.00;89.40;;;;;;5094462;28;20039;-70
2022/12/20 02:38:34;;;;;;;18.50;14.18;;;9.00;89.40;;;;;;5094431;28;20390;-70
2022/12/20 02:41:29;;;;;;;20.60;14.18;;;9.00;89.00;;;;;;5076221;28;20051;-71
2022/12/20 02:46:45;;;;;;;16.48;13.10;;;8.90;89.80;;;;;;5094747;28;20094;-69
2022/12/20 02:49:17;;;;;;;18.55;13.00;;;8.90;89.40;;;;;;5094421;28;20028;-70
2022/12/20 02:51:45;;;;;;;19.30;13.65;;;8.90;89.70;;;;;;5094722;28;20103;-71
2022/12/20 02:54:12;;;;;;;16.35;13.13;;;8.80;89.50;;;;;;5094582;28;20441;-71
2022/12/20 02:56:43;;;;;;;19.15;14.43;;;8.80;89.80;;;;;;5094610;28;20035;-70
2022/12/20 02:59:40;;;;;;;17.92;12.52;;;8.80;90.00;;;;;;5094561;28;20032;-71
2022/12/20 03:02:07;;;;;;;17.15;12.63;;;8.70;89.70;;;;;;5073031;28;20131;-71
2022/12/20 03:04:37;;;;;;;17.88;12.60;;;8.80;90.00;;;;;;5094030;28;20102;-70
2022/12/20 03:07:07;;;;;;;20.02;12.30;;;8.80;89.90;;;;;;5093756;28;20060;-71
2022/12/20 03:09:35;;;;;;;15.63;11.45;;;8.80;89.90;;;;;;5093791;28;20036;-70
2022/12/20 03:12:01;;;;;;;18.63;13.13;;;8.80;90.00;;;;;;5075527;28;20024;-71
2022/12/20 03:14:27;;;;;;;18.67;12.50;;;8.80;89.60;;;;;;5093781;28;20036;-70
2022/12/20 03:16:53;;;;;;;16.65;12.13;;;8.70;89.90;;;;;;5093594;28;20020;-70
2022/12/20 03:19:19;;;;;;;16.55;12.48;;;8.70;90.00;;;;;;5093713;28;20032;-70
2022/12/20 03:21:45;;;;;;;16.88;12.30;;;8.70;90.00;;;;;;5075263;28;20097;-70
2022/12/20 03:24:12;;;;;;;14.13;11.70;;;8.70;90.00;;;;;;5093462;28;20044;-70
2022/12/20 03:26:39;;;;;;;17.50;12.77;;;8.70;90.00;;;;;;5093009;28;20032;-70
2022/12/20 03:29:05;;;;;;;19.15;12.38;;;8.60;90.00;;;;;;5074997;28;20051;-70
2022/12/20 03:31:31;;;;;;;16.90;12.13;;;8.60;89.90;;;;;;5093155;28;20564;-70
2022/12/20 03:33:57;;;;;;;17.25;12.82;;;8.50;89.80;;;;;;5075018;28;20127;-70
2022/12/20 03:36:23;;;;;;;15.30;11.40;;;8.40;90.00;;;;;;5093337;28;20028;-70
2022/12/20 03:38:50;;;;;;;17.33;12.23;;;8.40;90.10;;;;;;5075065;28;20036;-71
2022/12/20 03:41:16;;;;;;;18.77;12.63;;;8.40;90.10;;;;;;5074948;28;20123;-70
2022/12/20 03:43:42;;;;;;;16.42;11.85;;;8.40;90.10;;;;;;5074634;28;20126;-70
2022/12/20 03:46:07;;;;;;;16.42;12.43;;;8.40;90.00;;;;;;5093106;28;20040;-70
2022/12/20 03:48:33;;;;;;;16.63;12.00;;;8.40;90.10;;;;;;5093365;28;20047;-71
2022/12/20 03:50:59;;;;;;;16.23;12.13;;;8.40;90.20;;;;;;5092991;28;20020;-70
2022/12/20 03:53:25;;;;;;;20.80;12.05;;;8.40;90.10;;;;;;5093328;28;20519;-70
2022/12/20 03:55:50;;;;;;;16.48;11.38;;;8.40;90.00;;;;;;5074523;28;20040;-70
2022/12/20 03:58:16;;;;;;;15.57;11.77;;;8.40;90.10;;;;;;5093147;28;20039;-70
2022/12/20 04:00:43;;;;;;;15.38;11.50;;;8.40;90.00;;;;;;5074910;28;20525;-70
2022/12/20 04:03:10;;;;;;;15.43;11.43;;;8.40;89.70;;;;;;5074760;28;20055;-70
2022/12/20 04:05:35;;;;;;;16.02;11.63;;;8.40;90.30;;;;;;5075709;28;20028;-72
2022/12/20 04:08:01;;;;;;;14.82;11.43;;;8.40;90.00;;;;;;5093321;28;20085;-70
2022/12/20 04:10:27;;;;;;;17.95;12.05;;;8.40;90.10;;;;;;5093004;28;20048;-69
2022/12/20 04:12:52;;;;;;;16.13;11.15;;;8.40;90.10;;;;;;5093551;28;20059;-70
2022/12/20 04:15:18;;;;;;;17.38;10.95;;;8.30;89.90;;;;;;5093013;28;20025;-71
2022/12/20 04:17:44;;;;;;;14.70;11.25;;;8.30;90.00;;;;;;5092763;28;20395;-70
2022/12/20 04:20:19;;;;;;;16.55;10.75;;;8.40;90.00;;;;;;5074061;28;20518;-70
2022/12/20 04:22:49;;;;;;;16.48;10.68;;;8.40;90.20;;;;;;5074540;28;20570;-70
2022/12/20 04:25:18;;;;;;;16.77;11.18;;;8.50;89.10;;;;;;5092511;28;20369;-71
2022/12/20 04:27:43;;;;;;;16.08;10.93;;;8.50;90.00;;;;;;5074420;28;20028;-70
2022/12/20 04:30:10;;;;;;;16.38;11.52;;;8.50;90.10;;;;;;5092387;28;20032;-70
2022/12/20 04:32:36;;;;;;;17.77;10.40;;;8.50;90.00;;;;;;5092841;28;20036;-71
2022/12/20 04:35:03;;;;;;;14.48;10.73;;;8.40;89.80;;;;;;5092544;28;20024;-71
2022/12/20 04:37:30;;;;;;;18.25;11.18;;;8.40;90.10;;;;;;5074784;28;20043;-69
2022/12/20 04:39:57;;;;;;;16.23;10.68;;;8.50;90.00;;;;;;5073501;28;20032;-72
2022/12/20 04:42:23;;;;;;;13.02;10.45;;;8.50;90.10;;;;;;5092568;28;20043;-70
2022/12/20 04:44:49;;;;;;;14.40;10.13;;;8.40;89.90;;;;;;5092525;28;20541;-70
2022/12/20 04:47:15;;;;;;;18.83;11.27;;;8.40;89.90;;;;;;5074567;28;20115;-70
2022/12/20 04:49:41;;;;;;;14.07;10.75;;;8.40;89.90;;;;;;5092430;28;20085;-69
2022/12/20 04:54:50;;;;;;;15.93;10.57;;;8.40;90.10;;;;;;5092674;28;20038;-70
2022/12/20 04:57:16;;;;;;;17.20;11.15;;;8.40;89.80;;;;;;5074201;28;20039;-70
2022/12/20 04:59:41;;;;;;;15.80;11.70;;;8.40;89.90;;;;;;5092481;28;20036;-69
2022/12/20 05:02:07;;;;;;;15.55;10.77;;;8.40;89.70;;;;;;5092304;28;20040;-69
2022/12/20 05:04:33;;;;;;;17.67;11.52;;;8.30;89.80;;;;;;5074260;28;20480;-70
2022/12/20 05:06:58;;;;;;;15.82;11.18;;;8.30;89.90;;;;;;5074102;28;20036;-69
2022/12/20 05:09:24;;;;;;;14.93;11.05;;;8.30;90.00;;;;;;5092635;28;20460;-70
2022/12/20 05:11:50;;;;;;;17.75;11.15;;;8.30;90.00;;;;;;5092775;28;20033;-71
2022/12/20 05:14:15;;;;;;;14.15;11.43;;;8.20;89.90;;;;;;5092356;28;20025;-70
2022/12/20 05:16:41;;;;;;;18.35;12.27;;;8.20;90.00;;;;;;5092345;28;20464;-70
2022/12/20 05:19:07;;;;;;;16.42;11.77;;;8.20;90.00;;;;;;5092391;28;20108;-70
2022/12/20 05:27:01;;;;;;;16.98;11.02;;;8.20;89.70;;;;;;5091727;28;20483;-70
2022/12/20 05:29:27;;;;;;;18.63;11.98;;;8.20;90.00;;;;;;5092000;28;20111;-70
2022/12/20 05:31:52;;;;;;;15.38;11.70;;;8.30;90.00;;;;;;5091848;28;20029;-70
2022/12/20 05:34:19;;;;;;;14.75;11.50;;;8.20;89.60;;;;;;5092150;28;20115;-70
2022/12/20 05:36:46;;;;;;;18.90;11.75;;;8.20;90.00;;;;;;5092081;28;20043;-69
2022/12/20 05:39:13;;;;;;;15.40;10.90;;;8.20;89.40;;;;;;5092051;28;20032;-71
2022/12/20 05:41:39;;;;;;;15.90;11.27;;;8.20;90.20;;;;;;5073706;28;20032;-70
2022/12/20 05:44:06;;;;;;;14.70;11.13;;;8.20;90.30;;;;;;5073511;28;20043;-71
2022/12/20 05:46:32;;;;;;;18.38;12.18;;;8.10;90.20;;;;;;5091891;28;20029;-70
2022/12/20 05:48:58;;;;;;;18.85;11.70;;;8.10;90.00;;;;;;5091737;28;20372;-70
2022/12/20 05:51:24;;;;;;;20.58;12.02;;;8.20;90.20;;;;;;5094214;28;20044;-71
2022/12/20 05:53:49;;;;;;;17.77;11.65;;;8.20;90.10;;;;;;5095405;28;20032;-70
2022/12/20 05:56:15;;;;;;;14.40;11.40;;;8.20;90.10;;;;;;5077098;28;20036;-70
2022/12/20 05:58:41;;;;;;;14.48;10.85;;;8.20;90.10;;;;;;5095145;28;20054;-71
2022/12/20 06:01:09;;;;;;;16.60;12.38;;;8.10;90.20;;;;;;5095208;28;20491;-70
2022/12/20 06:03:35;;;;;;;17.17;12.50;;;8.10;90.20;;;;;;5076908;28;20504;-71
2022/12/20 06:06:00;;;;;;;17.73;11.25;;;8.10;90.10;;;;;;5094913;28;20040;-70
2022/12/20 06:08:26;;;;;;;17.88;11.07;;;8.20;90.10;;;;;;5076786;28;20491;-69
2022/12/20 06:10:52;;;;;;;18.60;11.48;;;8.20;90.20;;;;;;5094589;28;20058;-71
2022/12/20 06:13:18;;;;;;;13.60;9.90;;;8.10;90.00;;;;;;5094922;28;20093;-71
2022/12/20 06:15:44;;;;;;;14.02;10.02;;;8.10;90.00;;;;;;5094875;28;20463;-71
2022/12/20 06:18:10;;;;;;;15.73;9.45;;;8.00;89.90;;;;;;5076524;28;20472;-70
2022/12/20 06:20:36;;;;;;;13.45;9.93;;;7.90;90.00;;;;;;5076614;28;20035;-72
2022/12/20 06:23:03;;;;;;;14.48;10.32;;;7.90;90.00;;;;;;5094767;28;20044;-70
2022/12/20 06:25:29;;;;;;;12.98;9.50;;;7.90;90.10;;;;;;5094418;28;20510;-71
2022/12/20 06:27:55;;;;;;;13.93;9.23;;;7.90;90.10;;;;;;5076562;28;20036;-70
2022/12/20 06:30:21;;;;;;;14.38;9.88;;;7.90;90.10;;;;;;5076277;28;20104;-71
2022/12/20 06:32:46;;;;;;;15.88;9.80;;;7.90;90.00;;;;;;5076390;28;20041;-71
2022/12/20 06:35:13;;;;;;;18.27;10.00;;;7.90;90.10;;;;;;5094538;28;20032;-70
2022/12/20 06:37:40;;;;;;;14.98;9.18;;;8.00;89.80;;;;;;5094727;28;20062;-70
2022/12/20 06:40:11;;;;;;;13.75;9.73;;;7.90;89.70;;;;;;5094333;28;20082;-70
2022/12/20 06:42:38;;;;;;;14.93;10.40;;;7.90;89.30;;;;;;5075962;28;20127;-70
2022/12/20 06:45:04;;;;;;;16.08;10.50;;;7.80;89.90;;;;;;5076024;28;20111;-69
2022/12/20 06:47:30;;;;;;;19.10;10.90;;;7.90;90.00;;;;;;5094320;28;20043;-70
2022/12/20 06:49:55;;;;;;;15.48;10.57;;;8.00;90.10;;;;;;5094762;28;20391;-70
2022/12/20 06:52:22;;;;;;;14.80;10.98;;;8.00;90.00;;;;;;5075923;28;20495;-69
2022/12/20 06:54:48;;;;;;;17.65;11.23;;;8.00;90.10;;;;;;5094031;28;20024;-69
2022/12/20 06:57:14;;;;;;;19.02;11.00;;;8.10;90.00;;;;;;5075931;28;20040;-69
2022/12/20 06:59:39;;;;;;;16.30;11.45;;;8.20;90.00;;;;;;5076115;28;20111;-67
2022/12/20 07:02:06;;;;;;;17.25;10.68;;;8.10;89.40;;;;;;5093515;28;20389;-69
2022/12/20 07:04:31;;;;;;;15.63;10.70;;;8.10;90.00;;;;;;5094515;28;20064;-69
2022/12/20 07:06:57;;;;;;;13.95;10.10;;;8.00;89.30;;;;;;5075637;28;20503;-69
2022/12/20 07:09:23;;;;;;;14.88;10.80;;;8.10;89.90;;;;;;5094308;28;20028;-68
2022/12/20 07:11:49;;;;;;;17.02;10.95;;;8.10;89.80;;;;;;5094811;28;20036;-69
2022/12/20 07:14:15;;;;;;;16.90;11.30;;;8.20;89.80;;;;;;5075570;28;20067;-69
2022/12/20 07:16:42;;;;;;;14.38;11.27;;;8.20;89.50;;;;;;5093860;28;20036;-67
2022/12/20 07:19:13;;;;;;;18.65;10.68;;;8.20;89.60;;;;;;5093759;28;20039;-68
2022/12/20 07:21:39;;;;;;;15.40;11.27;;;8.30;89.60;;;;;;5075383;28;20491;-69
2022/12/20 07:24:05;;;;;;;22.42;11.32;;;8.30;89.60;;;;;;5075628;28;20078;-68
2022/12/20 22:26:28;;;;;;;33.63;24.52;;;10.00;88.40;;;;;;5120836;22;20058;-78
2022/12/20 22:28:57;;;;;;;31.85;24.33;;;10.10;88.80;;;;;;5097570;28;20071;-79
2022/12/20 22:31:24;;;;;;;35.55;23.13;;;10.10;88.70;;;;;;5097619;28;20513;-78
2022/12/20 22:33:55;;;;;;;35.95;24.70;;;10.10;88.40;;;;;;5097412;28;20399;-80
2022/12/20 22:36:21;;;;;;;39.05;24.30;;;10.10;88.50;;;;;;5097132;28;20043;-79
2022/12/20 22:38:49;;;;;;;32.95;23.20;;;10.10;88.50;;;;;;5097270;28;20028;-78
2022/12/20 22:41:17;;;;;;;33.70;23.20;;;10.10;88.40;;;;;;5115481;28;20051;-78
2022/12/20 22:43:45;;;;;;;34.72;23.55;;;10.00;88.60;;;;;;5116278;28;20040;-78
2022/12/20 22:46:12;;;;;;;34.80;22.40;;;10.00;88.50;;;;;;5115868;28;20036;-79
2022/12/20 22:48:39;;;;;;;35.58;22.63;;;10.10;88.60;;;;;;5116257;28;20364;-79
2022/12/20 22:51:11;;;;;;;32.40;21.73;;;10.10;88.40;;;;;;5101966;28;20028;-80
2022/12/20 22:53:38;;;;;;;30.30;21.25;;;10.10;88.30;;;;;;5098396;28;20035;-81
2022/12/20 22:56:05;;;;;;;26.33;20.38;;;10.00;88.50;;;;;;5097322;28;20506;-79
2022/12/20 22:58:32;;;;;;;26.55;20.40;;;10.00;88.40;;;;;;5115402;28;20124;-79
2022/12/20 23:00:59;;;;;;;28.75;20.42;;;10.00;88.60;;;;;;5097059;28;20032;-80
2022/12/20 23:03:26;;;;;;;30.80;19.83;;;10.00;88.40;;;;;;5115263;28;20140;-80
2022/12/20 23:05:54;;;;;;;26.92;19.70;;;9.90;89.20;;;;;;5115503;28;20028;-78
2022/12/20 23:08:24;;;;;;;30.65;19.25;;;9.90;89.60;;;;;;5115063;28;20097;-80
2022/12/20 23:16:18;;;;;;;22.17;14.65;;;9.90;89.30;;;;;;5114804;28;20282;-80
2022/12/20 23:18:44;;;;;;;28.98;19.33;;;9.90;89.40;;;;;;5114517;28;20024;-78
2022/12/20 23:23:55;;;;;;;30.15;20.45;;;9.80;89.50;;;;;;5115142;28;20050;-79
2022/12/20 23:26:21;;;;;;;32.92;20.77;;;9.80;89.90;;;;;;5097659;28;20051;-78
2022/12/20 23:28:47;;;;;;;29.48;20.05;;;9.80;89.90;;;;;;5116618;28;20039;-78
2022/12/20 23:31:12;;;;;;;32.05;20.95;;;9.90;90.00;;;;;;5097844;28;20127;-77
2022/12/20 23:33:38;;;;;;;31.60;20.77;;;9.80;89.70;;;;;;5097839;28;20055;-79
2022/12/20 23:36:05;;;;;;;26.52;20.15;;;9.80;90.00;;;;;;5098511;28;20035;-79
2022/12/20 23:38:35;;;;;;;32.25;20.88;;;9.80;90.00;;;;;;5099095;28;20038;-79
2022/12/20 23:41:07;;;;;;;30.10;20.90;;;9.80;90.10;;;;;;5116299;28;20047;-78
2022/12/20 23:43:33;;;;;;;28.77;20.50;;;9.70;90.10;;;;;;5096295;28;20075;-78
2022/12/20 23:46:15;;;;;;;29.30;20.15;;;9.70;90.10;;;;;;5113953;28;20032;-81
2022/12/20 23:48:41;;;;;;;33.08;19.75;;;9.70;90.20;;;;;;5101000;28;20501;-79
2022/12/20 23:51:08;;;;;;;30.98;20.02;;;9.70;90.30;;;;;;5114828;28;20072;-79
2022/12/20 23:53:34;;;;;;;30.80;20.05;;;9.80;90.30;;;;;;5114724;28;20047;-80
2022/12/20 23:56:00;;;;;;;28.45;19.13;;;9.80;90.30;;;;;;5113889;28;20023;-80
2022/12/20 23:58:25;;;;;;;28.02;19.30;;;9.80;90.20;;;;;;5114016;28;20059;-79
